Time;durP1;ratioP1;P1;durP2;ratioP2;P2;SDS_P1;SDS_P2;PMS_P1;PMS_P2;Temp;Humidity;BMP_temperature;BMP_pressure;BME280_temperature;BME280_humidity;BME280_pressure;Samples;Min_cycle;Max_cycle;Signal;HPM_P1;HPM_P2
2022/05/14 00:00:00;;;;;;;5.27;4.20;;;;;;;19.36;55.44;101084.59;2081808;28;20922;-69
2022/05/14 00:01:01;;;;;;;7.97;3.83;;;;;;;19.37;55.55;101081.31;2081822;28;20902;-69
2022/05/14 00:02:02;;;;;;;6.27;4.20;;;;;;;19.11;55.71;101040.94;2081572;28;20181;-69
2022/05/14 00:03:03;;;;;;;9.57;4.13;;;;;;;19.36;55.92;101084.59;2081466;28;20427;-69
2022/05/14 00:04:04;;;;;;;8.90;4.67;;;;;;;19.39;56.08;101078.03;2081564;28;20177;-69
2022/05/14 00:05:05;;;;;;;8.20;3.67;;;;;;;18.21;55.93;100906.81;2081059;28;20857;-69
2022/05/14 00:06:09;;;;;;;6.63;3.83;;;;;;;19.24;56.39;101071.59;2081743;28;20423;-69
2022/05/14 00:07:10;;;;;;;5.20;3.90;;;;;;;19.17;56.44;101080.34;2081490;28;20237;-70
2022/05/14 00:08:12;;;;;;;6.20;4.17;;;;;;;19.12;56.48;101081.03;2081356;28;20416;-70
2022/05/14 00:09:13;;;;;;;5.40;4.10;;;;;;;19.10;56.50;101075.13;2081042;28;20276;-69
2022/05/14 00:10:15;;;;;;;4.60;3.70;;;;;;;19.16;56.31;101102.06;2081178;28;20531;-69
2022/05/14 00:13:55;;;;;;;8.73;4.10;;;;;;;19.21;56.09;101084.56;2081697;28;20396;-69
2022/05/14 00:14:56;;;;;;;7.67;4.30;;;;;;;19.21;55.94;101084.56;2081033;28;20657;-69
2022/05/14 00:15:56;;;;;;;6.37;4.10;;;;;;;19.05;55.84;101054.09;2081504;28;20921;-69
2022/05/14 00:16:57;;;;;;;8.53;3.97;;;;;;;19.22;55.69;101080.50;2081456;28;20235;-69
2022/05/14 00:17:57;;;;;;;6.50;4.00;;;;;;;19.23;55.60;101081.28;2085287;28;20189;-69
2022/05/14 00:18:59;;;;;;;7.77;3.90;;;;;;;19.26;55.65;101075.50;2089549;28;20605;-69
2022/05/14 00:19:59;;;;;;;7.93;4.20;;;;;;;19.30;55.83;101070.44;2090061;28;20188;-69
2022/05/14 00:21:00;;;;;;;4.90;3.90;;;;;;;18.41;55.67;100940.69;2089826;28;20456;-69
2022/05/14 00:22:00;;;;;;;7.93;3.97;;;;;;;19.34;55.68;101078.72;2087025;28;20176;-69
2022/05/14 00:23:01;;;;;;;7.53;3.87;;;;;;;19.39;55.90;101076.00;2080959;28;20548;-69
2022/05/14 00:24:03;;;;;;;5.20;3.90;;;;;;;19.41;55.69;101070.69;2081650;28;20597;-69
2022/05/14 00:25:04;;;;;;;7.23;4.00;;;;;;;19.43;55.78;101070.97;2080684;28;20261;-69
2022/05/14 00:26:04;;;;;;;6.63;3.80;;;;;;;18.56;55.55;100940.75;2081496;28;20418;-69
2022/05/14 00:27:05;;;;;;;8.37;4.30;;;;;;;18.57;55.39;100926.22;2081390;28;20178;-69
2022/05/14 00:28:06;;;;;;;5.60;4.03;;;;;;;19.26;55.48;101036.16;2081569;28;20650;-70
2022/05/14 00:29:08;;;;;;;7.27;3.60;;;;;;;19.46;55.48;101066.41;2081280;28;20665;-70
2022/05/14 00:30:10;;;;;;;5.43;4.00;;;;;;;19.45;55.30;101065.63;2081311;28;20256;-70
2022/05/14 00:31:10;;;;;;;5.87;3.73;;;;;;;19.49;55.47;101066.22;2081577;28;20410;-70
2022/05/14 00:32:11;;;;;;;6.77;3.90;;;;;;;19.42;55.67;101063.78;2081241;28;20408;-70
2022/05/14 00:33:11;;;;;;;8.53;3.93;;;;;;;19.30;55.99;101056.38;2081180;28;20218;-70
2022/05/14 00:34:12;;;;;;;6.50;4.20;;;;;;;19.20;56.34;101057.72;2081284;28;20654;-70
2022/05/14 00:35:13;;;;;;;6.03;4.10;;;;;;;19.07;56.59;101062.81;2080814;28;20173;-70
2022/05/14 00:36:14;;;;;;;5.40;4.20;;;;;;;19.23;56.41;101072.84;2081430;28;20197;-70
2022/05/14 00:37:15;;;;;;;5.93;4.13;;;;;;;19.26;56.24;101071.91;2081301;28;20420;-70
2022/05/14 00:38:16;;;;;;;6.83;4.20;;;;;;;19.22;56.33;101074.91;2080640;28;20178;-69
2022/05/14 00:39:17;;;;;;;6.00;4.10;;;;;;;19.09;56.22;101054.66;2080893;28;20480;-69
2022/05/14 00:40:23;;;;;;;9.23;4.37;;;;;;;19.11;56.66;101074.66;2080371;28;20178;-69
2022/05/14 00:41:24;;;;;;;7.53;4.90;;;;;;;19.03;56.96;101081.88;2081303;28;20163;-69
2022/05/14 00:42:25;;;;;;;7.13;4.30;;;;;;;18.94;57.28;101090.34;2080812;28;20429;-69
2022/05/14 00:43:25;;;;;;;7.60;4.70;;;;;;;18.87;57.42;101085.09;2080279;28;20185;-69
2022/05/14 00:44:26;;;;;;;9.27;4.73;;;;;;;18.98;57.20;101076.91;2080759;28;20205;-69
2022/05/14 00:45:28;;;;;;;6.27;4.47;;;;;;;19.05;57.03;101081.41;2081135;28;20264;-69
2022/05/14 00:46:40;;;;;;;6.87;4.30;;;;;;;19.06;56.99;101078.13;2081087;28;20186;-69
2022/05/14 00:47:45;;;;;;;6.57;3.90;;;;;;;19.04;56.80;101068.63;2081537;28;20412;-69
2022/05/14 00:48:48;;;;;;;5.97;4.43;;;;;;;19.10;56.78;101073.09;2081142;28;20430;-69
2022/05/14 00:49:48;;;;;;;8.37;4.30;;;;;;;19.10;56.97;101077.94;2081199;28;20436;-69
2022/05/14 00:50:52;;;;;;;10.00;4.57;;;;;;;19.03;56.90;101067.81;2080722;28;21007;-69
2022/05/14 00:51:53;;;;;;;9.80;4.50;;;;;;;19.05;57.29;101092.63;2080487;28;20169;-69
2022/05/14 00:53:10;;;;;;;8.60;4.93;;;;;;;19.05;59.05;101073.75;2080946;28;20816;-69
2022/05/14 00:54:15;;;;;;;8.10;4.90;;;;;;;19.10;59.25;101073.09;2081250;28;20442;-69
2022/05/14 00:55:17;;;;;;;8.40;5.43;;;;;;;19.13;59.83;101077.75;2080475;28;20947;-69
2022/05/14 00:56:30;;;;;;;6.03;5.30;;;;;;;17.96;59.81;100895.31;2081321;28;20415;-69
2022/05/14 00:57:41;;;;;;;9.70;4.13;;;;;;;19.18;59.04;101076.31;2080617;28;20943;-69
2022/05/14 00:59:02;;;;;;;7.40;4.60;;;;;;;19.15;58.28;101075.25;2080757;28;20416;-69
2022/05/14 01:00:10;;;;;;;6.17;4.70;;;;;;;19.13;57.90;101066.50;2080959;28;20522;-69
2022/05/14 01:01:11;;;;;;;7.10;5.03;;;;;;;19.21;57.62;101072.53;2081416;28;20453;-69
2022/05/14 01:02:12;;;;;;;10.03;4.73;;;;;;;19.21;57.58;101078.94;2080352;28;21039;-69
2022/05/14 01:03:13;;;;;;;8.23;5.03;;;;;;;19.18;57.79;101071.47;2080461;28;20204;-69
2022/05/14 01:04:14;;;;;;;8.37;4.67;;;;;;;18.37;57.78;100939.34;2080922;28;20253;-69
2022/05/14 01:05:18;;;;;;;9.10;4.67;;;;;;;19.27;57.69;101070.63;2080627;28;20670;-69
2022/05/14 01:06:20;;;;;;;9.33;5.17;;;;;;;19.29;57.80;101070.94;2081196;28;20418;-69
2022/05/14 01:07:22;;;;;;;10.90;5.23;;;;;;;19.31;57.65;101077.63;2081081;28;20431;-69
2022/05/14 01:08:23;;;;;;;7.90;4.63;;;;;;;19.29;57.64;101080.13;2081153;28;20418;-69
2022/05/14 01:09:24;;;;;;;11.37;5.03;;;;;;;19.25;57.70;101062.69;2081349;28;20415;-69
2022/05/14 01:10:31;;;;;;;8.10;5.00;;;;;;;19.31;57.70;101068.41;2080778;28;20216;-69
2022/05/14 01:11:33;;;;;;;9.20;5.43;;;;;;;19.29;57.71;101074.50;2081159;28;20403;-69
2022/05/14 01:12:34;;;;;;;9.27;5.30;;;;;;;19.31;57.73;101069.22;2081065;28;20513;-69
2022/05/14 01:13:35;;;;;;;9.50;4.93;;;;;;;19.33;57.68;101063.88;2080888;28;20412;-69
2022/05/14 01:14:35;;;;;;;8.07;4.63;;;;;;;19.33;57.47;101063.88;2080621;28;20682;-69
2022/05/14 01:15:41;;;;;;;8.83;4.70;;;;;;;19.33;57.51;101060.28;2080772;28;20231;-69
2022/05/14 01:16:42;;;;;;;6.97;5.00;;;;;;;19.22;57.44;101048.81;2081211;28;20682;-69
2022/05/14 01:17:42;;;;;;;7.10;4.43;;;;;;;19.34;57.29;101061.84;2082774;28;20864;-69
2022/05/14 01:18:43;;;;;;;12.10;4.70;;;;;;;19.35;57.47;101069.00;2089168;28;20187;-69
2022/05/14 01:19:43;;;;;;;8.70;5.03;;;;;;;19.36;57.38;101067.75;2089752;28;20191;-69
2022/05/14 01:20:58;;;;;;;10.30;5.23;;;;;;;19.35;57.49;101064.16;2088821;28;20179;-69
2022/05/14 01:22:13;;;;;;;7.87;4.87;;;;;;;19.34;57.58;101064.66;2086844;28;20641;-69
2022/05/14 01:26:27;;;;;;;9.03;5.00;;;;;;;19.35;57.71;101063.41;2080683;28;20463;-69
2022/05/14 01:26:30;;;;;;;8.07;5.00;;;;;;;19.30;57.47;101064.81;2080967;28;20396;-69
2022/05/14 01:27:31;;;;;;;6.60;5.00;;;;;;;19.31;57.44;101060.78;2081096;28;20858;-69
2022/05/14 01:28:31;;;;;;;11.60;5.50;;;;;;;19.29;57.41;101063.28;2080847;28;20514;-69
2022/05/14 01:29:33;;;;;;;7.13;4.90;;;;;;;19.25;57.55;101076.72;2081274;28;20622;-69
2022/05/14 01:30:33;;;;;;;6.67;4.80;;;;;;;19.24;57.53;101063.94;2080886;28;20183;-69
2022/05/14 01:31:35;;;;;;;8.97;4.90;;;;;;;19.27;57.48;101060.19;2080618;28;20508;-69
2022/05/14 01:32:36;;;;;;;5.60;4.60;;;;;;;19.25;57.42;101059.88;2080937;28;20184;-69
2022/05/14 01:33:37;;;;;;;6.43;4.63;;;;;;;19.26;57.16;101061.44;2080878;28;20565;-69
2022/05/14 01:34:37;;;;;;;5.00;4.50;;;;;;;18.01;57.09;100863.81;2080377;28;20203;-69
2022/05/14 01:35:40;;;;;;;6.60;4.67;;;;;;;19.19;57.01;101044.16;2080251;28;20176;-69
2022/05/14 01:36:41;;;;;;;4.97;4.13;;;;;;;19.22;57.17;101051.63;2079999;28;20609;-69
2022/05/14 01:37:41;;;;;;;6.93;4.87;;;;;;;19.18;57.09;101054.59;2081291;28;20457;-69
2022/05/14 01:38:42;;;;;;;14.07;5.40;;;;;;;19.16;57.09;101051.50;2080747;28;20181;-69
2022/05/14 01:39:42;;;;;;;5.63;4.50;;;;;;;19.13;57.02;101051.69;2081052;28;20195;-69
2022/05/14 01:40:43;;;;;;;8.43;4.67;;;;;;;18.94;56.99;101019.38;2080995;28;20176;-69
2022/05/14 01:41:44;;;;;;;7.40;4.90;;;;;;;19.11;57.10;101046.56;2080490;28;20185;-69
2022/05/14 01:42:44;;;;;;;5.93;4.43;;;;;;;18.96;57.17;101023.25;2080051;28;20694;-69
2022/05/14 01:43:45;;;;;;;5.90;4.53;;;;;;;18.94;57.14;101027.81;2080371;28;20182;-69
2022/05/14 01:44:46;;;;;;;6.60;4.80;;;;;;;19.03;57.23;101034.13;2079065;28;20177;-69
2022/05/14 01:45:47;;;;;;;7.90;5.43;;;;;;;19.03;57.32;101038.97;2080432;28;20238;-69
2022/05/14 01:46:47;;;;;;;10.13;5.30;;;;;;;19.01;57.42;101033.84;2080651;28;20652;-69
2022/05/14 01:47:48;;;;;;;9.57;5.50;;;;;;;18.64;57.38;100995.28;2081227;28;20273;-69
2022/05/14 01:48:49;;;;;;;8.23;5.50;;;;;;;18.99;57.85;101035.56;2080432;28;20173;-69
2022/05/14 01:49:49;;;;;;;6.97;4.90;;;;;;;18.93;57.96;101040.31;2080495;28;20179;-69
2022/05/14 01:50:50;;;;;;;5.80;4.67;;;;;;;18.92;57.42;101038.72;2080217;28;20426;-69
2022/05/14 01:51:50;;;;;;;10.40;4.57;;;;;;;18.89;57.23;101040.47;2079979;28;20180;-69
2022/05/14 01:52:51;;;;;;;10.57;5.27;;;;;;;18.81;57.27;101033.66;2080483;28;20259;-69
2022/05/14 01:53:52;;;;;;;11.80;5.10;;;;;;;18.79;57.49;101041.78;2081111;28;20646;-69
2022/05/14 01:54:53;;;;;;;9.57;5.63;;;;;;;18.26;57.39;100981.91;2079872;28;20219;-69
2022/05/14 01:55:53;;;;;;;8.57;5.70;;;;;;;17.98;58.05;100966.50;2080951;28;20416;-69
2022/05/14 01:56:54;;;;;;;11.57;5.70;;;;;;;18.48;58.18;101057.44;2080721;28;20173;-69
2022/05/14 01:57:54;;;;;;;8.23;5.90;;;;;;;18.34;58.72;101066.53;2080268;28;20187;-69
2022/05/14 01:58:55;;;;;;;10.13;6.33;;;;;;;18.24;59.00;101063.75;2079816;28;20263;-69
2022/05/14 01:59:55;;;;;;;7.97;6.03;;;;;;;18.20;59.01;101051.16;2081062;28;20186;-69
2022/05/14 02:00:56;;;;;;;9.63;6.13;;;;;;;18.26;59.15;101066.06;2080581;28;20169;-69
2022/05/14 02:01:57;;;;;;;14.07;6.20;;;;;;;18.22;59.13;101053.47;2079505;28;20181;-69
2022/05/14 02:02:57;;;;;;;11.70;6.30;;;;;;;18.13;59.44;101059.13;2079902;28;20176;-69
2022/05/14 02:04:01;;;;;;;11.83;7.50;;;;;;;18.13;59.58;101061.94;2080609;28;20177;-69
2022/05/14 02:05:02;;;;;;;9.60;7.77;;;;;;;18.19;60.38;101067.19;2079988;28;20223;-69
2022/05/14 02:06:06;;;;;;;11.60;8.33;;;;;;;17.26;60.60;100919.09;2080834;28;20413;-69
2022/05/14 02:07:06;;;;;;;11.17;8.30;;;;;;;18.17;60.78;101066.09;2080924;28;20179;-69
2022/05/14 02:08:07;;;;;;;12.67;7.07;;;;;;;18.12;60.95;101058.34;2080911;28;21124;-69
2022/05/14 02:09:10;;;;;;;9.90;7.00;;;;;;;18.17;60.59;101056.94;2080818;28;20568;-69
2022/05/14 02:10:11;;;;;;;11.03;7.90;;;;;;;17.07;60.88;100893.13;2080712;28;20536;-69
2022/05/14 02:11:13;;;;;;;11.83;7.13;;;;;;;18.16;60.97;101050.53;2081116;28;20587;-69
2022/05/14 02:12:14;;;;;;;9.50;6.47;;;;;;;17.69;60.53;100980.31;2080222;28;20567;-69
2022/05/14 02:13:14;;;;;;;9.17;6.10;;;;;;;18.07;60.21;101032.97;2080399;28;20495;-69
2022/05/14 02:14:15;;;;;;;11.10;6.50;;;;;;;18.21;60.06;101055.50;2080531;28;20217;-69
2022/05/14 02:15:15;;;;;;;8.07;6.67;;;;;;;16.92;60.18;100858.66;2079957;28;20205;-69
2022/05/14 02:16:16;;;;;;;7.53;6.70;;;;;;;18.22;60.45;101067.50;2080617;28;20176;-69
2022/05/14 02:17:17;;;;;;;9.03;7.10;;;;;;;18.23;60.39;101057.84;2080772;28;20251;-69
2022/05/14 02:18:19;;;;;;;10.70;7.00;;;;;;;18.18;60.33;101048.06;2087144;28;20418;-69
2022/05/14 02:19:19;;;;;;;9.17;6.77;;;;;;;18.13;60.60;101049.44;2088714;28;20186;-69
2022/05/14 02:20:20;;;;;;;10.53;7.77;;;;;;;18.26;60.97;101054.84;2089012;28;20422;-69
2022/05/14 02:21:24;;;;;;;12.20;6.73;;;;;;;18.26;60.86;101054.84;2088669;28;20427;-69
2022/05/14 02:22:25;;;;;;;8.83;7.40;;;;;;;18.27;60.50;101057.19;2082501;28;20184;-69
2022/05/14 02:23:25;;;;;;;10.70;8.57;;;;;;;18.32;60.87;101060.59;2080393;28;20552;-69
2022/05/14 02:24:26;;;;;;;10.83;8.80;;;;;;;17.52;61.04;100935.06;2080043;28;20236;-69
2022/05/14 02:25:26;;;;;;;10.17;7.37;;;;;;;18.30;60.82;101052.66;2080112;28;20203;-69
2022/05/14 02:26:27;;;;;;;9.37;7.30;;;;;;;18.31;60.82;101059.81;2080572;28;20809;-69
2022/05/14 02:27:28;;;;;;;10.20;7.20;;;;;;;18.31;60.78;101054.22;2080719;28;20169;-69
2022/05/14 02:28:29;;;;;;;9.97;7.53;;;;;;;18.32;60.78;101052.19;2080568;28;20674;-69
2022/05/14 02:29:50;;;;;;;11.00;7.27;;;;;;;18.32;60.74;101057.81;2080674;28;20184;-69
2022/05/14 02:30:50;;;;;;;11.80;6.27;;;;;;;17.36;60.68;100898.97;2080185;28;20193;-69
2022/05/14 02:31:51;;;;;;;10.00;6.90;;;;;;;18.41;60.28;101060.56;2080449;28;20454;-69
2022/05/14 02:32:51;;;;;;;12.40;7.60;;;;;;;18.41;60.35;101052.16;2079667;28;20208;-69
2022/05/14 02:33:52;;;;;;;10.67;6.40;;;;;;;18.41;60.10;101055.75;2080638;28;20289;-69
2022/05/14 02:34:54;;;;;;;9.53;7.10;;;;;;;18.42;60.16;101051.69;2079822;28;20256;-69
2022/05/14 02:35:54;;;;;;;11.73;7.00;;;;;;;18.43;60.03;101052.47;2080658;28;20261;-69
2022/05/14 02:36:55;;;;;;;9.27;6.63;;;;;;;18.44;59.99;101056.81;2080435;28;20924;-69
2022/05/14 02:37:55;;;;;;;12.17;6.77;;;;;;;17.45;60.09;100908.63;2080863;28;20188;-69
2022/05/14 02:38:56;;;;;;;14.27;7.57;;;;;;;18.42;60.05;101056.53;2080602;28;20193;-69
2022/05/14 02:39:56;;;;;;;13.53;7.27;;;;;;;18.33;59.94;101048.94;2080364;28;20181;-69
2022/05/14 02:40:57;;;;;;;11.43;7.70;;;;;;;18.39;59.66;101054.66;2080590;28;20177;-69
2022/05/14 02:41:57;;;;;;;12.43;7.10;;;;;;;18.39;59.72;101057.47;2080463;28;20568;-69
2022/05/14 02:42:58;;;;;;;7.77;6.97;;;;;;;18.36;59.86;101050.78;2079935;28;20165;-69
2022/05/14 02:43:59;;;;;;;9.60;6.93;;;;;;;18.38;59.76;101051.06;2080420;28;20263;-69
2022/05/14 02:44:59;;;;;;;10.40;7.93;;;;;;;18.36;59.90;101052.81;2079687;28;20210;-69
2022/05/14 02:46:01;;;;;;;10.50;7.50;;;;;;;18.35;59.94;101049.25;2080276;28;20182;-69
2022/05/14 02:47:02;;;;;;;14.43;7.77;;;;;;;18.24;59.82;101040.53;2080656;28;20276;-69
2022/05/14 02:48:03;;;;;;;14.07;8.80;;;;;;;18.31;60.16;101051.41;2079875;28;20452;-69
2022/05/14 02:49:04;;;;;;;14.17;8.00;;;;;;;18.27;60.21;101047.97;2079748;28;20427;-69
2022/05/14 02:50:07;;;;;;;14.73;9.07;;;;;;;18.31;60.09;101054.22;2080484;28;20419;-69
2022/05/14 02:51:08;;;;;;;14.73;8.07;;;;;;;18.28;60.46;101050.31;2080728;28;20666;-69
2022/05/14 02:52:10;;;;;;;11.07;8.87;;;;;;;18.29;60.61;101051.88;2080122;28;20802;-69
2022/05/14 02:53:11;;;;;;;11.17;6.97;;;;;;;18.27;59.78;101051.59;2080114;28;20358;-69
2022/05/14 02:54:12;;;;;;;7.73;5.80;;;;;;;18.28;59.36;101055.19;2080118;28;20408;-69
2022/05/14 02:55:12;;;;;;;9.43;6.40;;;;;;;18.17;59.46;101047.25;2079747;28;20177;-69
2022/05/14 02:56:13;;;;;;;10.20;5.70;;;;;;;18.23;58.87;101061.44;2080464;28;20695;-69
2022/05/14 02:57:13;;;;;;;6.60;5.00;;;;;;;18.22;58.95;101057.03;2080655;28;20247;-69
2022/05/14 02:59:06;;;;;;;7.67;5.93;;;;;;;18.14;58.67;101042.59;2080488;28;20201;-69
2022/05/14 02:59:34;;;;;;;9.17;6.23;;;;;;;18.17;59.14;101058.47;2080286;28;20180;-69
2022/05/14 03:00:35;;;;;;;9.57;6.20;;;;;;;18.14;59.51;101062.22;2080335;28;20401;-69
2022/05/14 03:01:37;;;;;;;11.77;6.80;;;;;;;18.13;59.58;101059.13;2080238;28;20268;-69
2022/05/14 03:02:38;;;;;;;8.90;7.07;;;;;;;18.13;59.98;101056.31;2080523;28;20190;-69
2022/05/14 03:03:39;;;;;;;8.93;7.00;;;;;;;18.13;60.38;101052.25;2080206;28;20425;-69
2022/05/14 03:04:40;;;;;;;10.90;7.67;;;;;;;17.03;60.32;100884.13;2080627;28;20179;-69
2022/05/14 03:05:41;;;;;;;17.73;8.40;;;;;;;18.09;60.25;101048.09;2082419;28;20176;-69
2022/05/14 03:06:42;;;;;;;13.40;8.13;;;;;;;18.31;60.45;101053.44;2081676;28;20422;-69
2022/05/14 03:07:42;;;;;;;10.13;7.80;;;;;;;18.34;60.36;101058.13;2082301;28;20182;-69
2022/05/14 03:08:42;;;;;;;12.20;8.33;;;;;;;18.34;60.38;101061.72;2082066;28;20181;-69
2022/05/14 03:09:43;;;;;;;8.07;7.20;;;;;;;18.35;60.13;101059.66;2081411;28;20700;-69
2022/05/14 03:10:44;;;;;;;13.40;7.27;;;;;;;18.41;60.41;101066.19;2081548;28;20191;-69
2022/05/14 03:11:45;;;;;;;10.53;7.20;;;;;;;18.46;60.12;101065.53;2081956;28;20211;-69
2022/05/14 03:12:45;;;;;;;10.00;7.87;;;;;;;18.23;60.14;101010.94;2081535;28;20209;-69
2022/05/14 03:13:47;;;;;;;13.53;8.33;;;;;;;18.49;60.24;101056.97;2082327;28;20284;-69
2022/05/14 03:14:49;;;;;;;12.77;7.40;;;;;;;18.51;60.24;101050.84;2080653;28;20331;-69
2022/05/14 03:15:49;;;;;;;6.60;5.63;;;;;;;18.47;59.84;101039.81;2082143;28;20432;-69
2022/05/14 03:16:50;;;;;;;11.53;7.90;;;;;;;18.52;59.89;101064.41;2081840;28;20422;-69
2022/05/14 03:17:51;;;;;;;12.30;7.50;;;;;;;18.55;59.70;101049.44;2085087;28;20195;-69
2022/05/14 03:18:51;;;;;;;14.13;7.90;;;;;;;18.57;59.62;101049.72;2090020;28;20509;-69
2022/05/14 03:19:52;;;;;;;13.20;7.40;;;;;;;18.64;59.40;101057.81;2090333;28;20172;-69
2022/05/14 03:20:52;;;;;;;13.93;7.67;;;;;;;18.66;59.29;101057.31;2090268;28;20645;-69
2022/05/14 03:21:53;;;;;;;14.03;6.80;;;;;;;18.64;59.18;101057.81;2088506;28;20681;-69
2022/05/14 03:22:53;;;;;;;14.10;7.57;;;;;;;18.70;59.31;101055.13;2081296;28;20195;-69
2022/05/14 03:23:54;;;;;;;11.77;6.87;;;;;;;18.75;59.18;101052.44;2082286;28;20165;-69
2022/05/14 03:24:54;;;;;;;14.10;7.90;;;;;;;18.17;58.80;100965.13;2080457;28;20218;-69
2022/05/14 03:25:55;;;;;;;15.97;7.50;;;;;;;18.80;58.88;101060.19;2081744;28;20250;-69
2022/05/14 03:26:56;;;;;;;16.53;7.27;;;;;;;18.83;58.65;101062.03;2081948;28;20188;-69
2022/05/14 03:27:56;;;;;;;12.10;7.03;;;;;;;18.84;58.67;101065.63;2081905;28;20715;-69
2022/05/14 03:28:57;;;;;;;12.53;7.10;;;;;;;18.72;58.72;101050.56;2082290;28;20257;-69
2022/05/14 03:29:57;;;;;;;13.43;7.30;;;;;;;18.86;58.62;101071.53;2081270;28;20245;-69
2022/05/14 03:30:59;;;;;;;14.90;6.90;;;;;;;18.82;58.48;101052.06;2081103;28;20179;-69
2022/05/14 03:32:00;;;;;;;15.17;8.00;;;;;;;18.82;58.50;101054.09;2081771;28;20179;-69
2022/05/14 03:33:00;;;;;;;37.17;9.67;;;;;;;18.79;58.51;101058.63;2081456;28;20556;-69
2022/05/14 03:34:01;;;;;;;39.23;11.00;;;;;;;18.82;58.54;101066.09;2081857;28;20173;-69
2022/05/14 03:35:05;;;;;;;18.30;8.07;;;;;;;18.91;58.63;101071.66;2080855;28;20682;-69
2022/05/14 03:36:06;;;;;;;25.60;8.73;;;;;;;18.84;58.58;101076.88;2082080;28;20557;-69
2022/05/14 03:37:07;;;;;;;9.73;6.10;;;;;;;18.85;58.76;101075.59;2081817;28;20917;-69
2022/05/14 03:38:07;;;;;;;13.50;7.50;;;;;;;18.87;58.71;101079.50;2082132;28;20800;-69
2022/05/14 03:39:08;;;;;;;20.03;8.50;;;;;;;18.63;58.57;101039.41;2082143;28;20204;-69
2022/05/14 03:40:09;;;;;;;9.60;6.53;;;;;;;18.82;58.39;101068.13;2081600;28;20247;-69
2022/05/14 03:41:10;;;;;;;13.70;6.67;;;;;;;18.95;58.55;101083.50;2082081;28;20171;-69
2022/05/14 03:42:10;;;;;;;14.30;7.00;;;;;;;18.97;58.46;101083.00;2081577;28;20418;-69
2022/05/14 03:43:11;;;;;;;12.07;7.07;;;;;;;19.00;58.46;101090.47;2081581;28;20650;-69
2022/05/14 03:44:12;;;;;;;15.77;7.50;;;;;;;19.05;58.38;101081.41;2081640;28;20187;-69
2022/05/14 03:45:12;;;;;;;22.93;8.27;;;;;;;19.11;58.15;101082.28;2080721;28;20177;-69
2022/05/14 03:46:13;;;;;;;17.63;7.70;;;;;;;19.00;58.16;101062.41;2080982;28;20211;-69
2022/05/14 03:47:14;;;;;;;13.97;7.57;;;;;;;18.13;58.20;100927.31;2081348;28;20562;-69
2022/05/14 03:48:14;;;;;;;14.77;7.93;;;;;;;19.14;58.09;101076.47;2081870;28;20212;-69
2022/05/14 03:49:15;;;;;;;14.70;8.10;;;;;;;19.21;58.10;101093.00;2081783;28;20673;-69
2022/05/14 03:50:16;;;;;;;20.30;9.00;;;;;;;19.27;58.11;101085.47;2081744;28;20542;-69
2022/05/14 03:51:16;;;;;;;11.97;7.43;;;;;;;19.16;57.94;101068.38;2081773;28;20260;-69
2022/05/14 03:52:17;;;;;;;19.70;8.53;;;;;;;19.37;58.10;101097.41;2081750;28;20262;-69
2022/05/14 03:53:18;;;;;;;16.30;7.97;;;;;;;19.39;57.93;101103.34;2081510;28;20204;-69
2022/05/14 03:54:19;;;;;;;19.83;8.00;;;;;;;19.42;57.93;101100.34;2081717;28;20565;-69
2022/05/14 03:55:20;;;;;;;18.70;8.33;;;;;;;19.47;57.97;101098.88;2080568;28;20514;-69
2022/05/14 03:56:21;;;;;;;18.47;8.63;;;;;;;19.49;57.90;101091.50;2080872;28;20180;-69
2022/05/14 03:57:21;;;;;;;13.90;8.00;;;;;;;19.23;57.80;101051.16;2081285;28;20415;-69
2022/05/14 03:58:22;;;;;;;12.50;8.10;;;;;;;19.12;57.64;101034.06;2081681;28;20181;-69
2022/05/14 03:59:23;;;;;;;21.90;10.63;;;;;;;19.01;57.62;101005.75;2081984;28;20191;-69
2022/05/14 04:00:23;;;;;;;19.40;11.10;;;;;;;19.67;57.51;101104.63;2081763;28;20408;-69
2022/05/14 04:01:24;;;;;;;20.77;11.80;;;;;;;19.71;57.58;101108.78;2081347;28;20540;-69
2022/05/14 04:02:24;;;;;;;17.13;11.07;;;;;;;19.74;57.56;101105.03;2081678;28;20702;-69
2022/05/14 04:03:25;;;;;;;15.43;9.53;;;;;;;18.78;57.51;100946.81;2081517;28;20189;-69
2022/05/14 04:04:26;;;;;;;16.93;9.00;;;;;;;19.82;57.48;101123.09;2081064;28;20251;-69
2022/05/14 04:05:27;;;;;;;14.70;7.93;;;;;;;19.83;57.58;101107.75;2081431;28;20638;-69
2022/05/14 04:06:27;;;;;;;11.20;7.40;;;;;;;19.83;57.66;101110.56;2081200;28;20654;-69
2022/05/14 04:07:30;;;;;;;12.83;7.53;;;;;;;19.88;57.56;101120.34;2081757;28;20665;-69
2022/05/14 04:08:31;;;;;;;14.43;8.00;;;;;;;19.93;57.52;101117.66;2081686;28;20603;-69
2022/05/14 04:09:31;;;;;;;10.10;7.17;;;;;;;19.96;57.51;101122.28;2081956;28;20563;-69
2022/05/14 04:10:33;;;;;;;9.87;7.43;;;;;;;19.19;57.35;100991.53;2081617;28;20482;-69
2022/05/14 04:11:33;;;;;;;10.83;6.63;;;;;;;19.69;57.37;101071.97;2081573;28;20745;-69
2022/05/14 04:12:34;;;;;;;12.10;7.53;;;;;;;20.10;57.34;101120.75;2081547;28;20507;-69
2022/05/14 04:13:35;;;;;;;9.27;6.80;;;;;;;20.14;57.25;101129.78;2081431;28;20176;-69
2022/05/14 04:14:35;;;;;;;7.93;6.70;;;;;;;18.97;57.28;100948.97;2081043;28;20655;-69
2022/05/14 04:15:36;;;;;;;9.63;6.43;;;;;;;19.26;57.24;100974.34;2080530;28;20690;-69
2022/05/14 04:16:36;;;;;;;10.13;6.53;;;;;;;20.23;57.24;101130.47;2080428;28;20176;-69
2022/05/14 04:17:37;;;;;;;9.70;7.03;;;;;;;19.04;57.28;100942.22;2082704;28;20172;-69
2022/05/14 04:18:37;;;;;;;10.13;6.70;;;;;;;20.28;57.34;101129.81;2089695;28;20610;-69
2022/05/14 04:19:38;;;;;;;9.27;6.17;;;;;;;20.29;57.30;101128.53;2090190;28;20169;-69
2022/05/14 04:20:39;;;;;;;10.30;7.20;;;;;;;20.34;57.33;101132.69;2089776;28;20622;-69
2022/05/14 04:21:39;;;;;;;8.90;6.83;;;;;;;20.32;57.27;101121.91;2089484;28;20173;-69
2022/05/14 04:22:40;;;;;;;11.20;6.53;;;;;;;20.45;57.32;101138.50;2081898;28;20270;-69
2022/05/14 04:23:40;;;;;;;9.20;6.87;;;;;;;20.46;57.25;101134.44;2081484;28;20225;-69
2022/05/14 04:24:40;;;;;;;14.77;8.40;;;;;;;20.40;57.31;101117.44;2079942;28;20181;-69
2022/05/14 04:25:41;;;;;;;12.83;6.33;;;;;;;19.69;57.43;101012.13;2080860;28;20176;-69
2022/05/14 04:26:42;;;;;;;13.00;7.37;;;;;;;20.45;57.19;101122.38;2081067;28;20187;-69
2022/05/14 04:27:44;;;;;;;11.20;7.20;;;;;;;20.56;57.21;101138.66;2081671;28;20233;-69
2022/05/14 04:28:46;;;;;;;8.40;6.37;;;;;;;20.43;57.67;101113.66;2081481;28;20204;-69
2022/05/14 04:29:46;;;;;;;10.53;6.57;;;;;;;20.66;57.31;101142.91;2081877;28;20455;-69
2022/05/14 04:30:48;;;;;;;10.47;6.67;;;;;;;20.67;57.33;101138.84;2081353;28;20933;-69
2022/05/14 04:31:48;;;;;;;8.53;6.60;;;;;;;20.16;57.26;101056.94;2081107;28;20201;-69
2022/05/14 04:32:49;;;;;;;9.47;6.30;;;;;;;20.38;57.16;101083.41;2081225;28;20973;-69
2022/05/14 04:33:49;;;;;;;9.43;6.20;;;;;;;20.76;57.04;101145.13;2081671;28;20700;-69
2022/05/14 04:34:50;;;;;;;6.87;5.47;;;;;;;20.52;56.90;101109.97;2080612;28;20180;-69
2022/05/14 04:35:50;;;;;;;9.63;6.50;;;;;;;20.39;57.08;101076.50;2081721;28;20259;-69
2022/05/14 04:36:51;;;;;;;6.40;5.70;;;;;;;20.80;57.02;101130.84;2080812;28;20396;-69
2022/05/14 04:37:52;;;;;;;9.83;5.93;;;;;;;20.91;56.89;101151.53;2081733;28;20181;-69
2022/05/14 04:38:52;;;;;;;9.30;6.03;;;;;;;20.97;56.74;101143.94;2081317;28;20494;-69
2022/05/14 04:39:53;;;;;;;10.00;6.50;;;;;;;20.63;56.97;101096.03;2081737;28;20265;-69
2022/05/14 04:40:53;;;;;;;9.13;6.07;;;;;;;20.16;56.92;101015.50;2081514;28;20177;-69
2022/05/14 04:41:54;;;;;;;10.00;6.40;;;;;;;21.08;56.94;101154.59;2081328;28;20199;-69
2022/05/14 04:42:54;;;;;;;7.80;6.27;;;;;;;21.11;56.73;101162.03;2081060;28;20729;-69
2022/05/14 04:43:54;;;;;;;9.67;6.20;;;;;;;20.70;56.90;101089.97;2081558;28;20264;-69
2022/05/14 04:44:55;;;;;;;9.20;6.73;;;;;;;21.14;56.82;101163.88;2080525;28;20177;-69
2022/05/14 04:45:56;;;;;;;9.83;6.60;;;;;;;20.87;56.75;101102.28;2081287;28;20184;-69
2022/05/14 04:46:57;;;;;;;9.00;6.20;;;;;;;20.91;56.64;101100.81;2081245;28;20426;-69
2022/05/14 04:47:57;;;;;;;10.53;6.60;;;;;;;20.96;56.58;101102.94;2081321;28;20176;-69
2022/05/14 04:48:58;;;;;;;8.57;6.70;;;;;;;21.40;56.38;101162.69;2081225;28;20189;-69